Terminal Aerodrome Forecast
Issued by NWS

Home | Current Version | Previous Version | Text Only | Print | Product List | Glossary On
Versions: 1 2 3 4 5 6 7 8 9 10 11 12 13
418
FTUS45 KABQ 252322
TAFLVS
TAF
KLVS 252322Z 2600/2624 25023G34KT P6SM SKC
     FM260100 22011KT P6SM SCT200
     FM261600 24012G18KT P6SM FEW200
     FM262000 22018G28KT P6SM SCT150 BKN200=

USA.gov is the U.S. government's official web portal to all federal, state and local government web resources and services.